Terminal Aerodrome Forecast
Issued by NWS Pueblo, CO

Home | Current Version | Previous Version | Text Only | Print | Product List | Glossary On
Versions: 1 2 3 4 5 6 7 8 9 10 11 12 13 14 15 16 17 18 19 20 21 22 23 24 25 26 27 28 29 30 31 32 33 34 35 36 37 38 39 40 41 42
000
FTUS45 KPUB 261934 AAA
TAFPUB
TAF AMD
KPUB 261934Z 2620/2718 11011KT P6SM FEW100
     FM262200 16013G23KT P6SM VCTS SCT100CB SCT200
     FM270000 19010G20KT P6SM SCT090 BKN140
     FM270200 23009KT P6SM SCT140
     FM270600 28011KT P6SM FEW200
     FM271100 01011KT P6SM BKN030=

USA.gov is the U.S. government's official web portal to all federal, state and local government web resources and services.